West Plattsburgh, New York
Current Conditions -  °F | °C
As of 8:53 PM on Wednesday 22 Oct 2014 (Local Time) from KPBG Reporting Station
Overcast Overcast  
Wind Chill: 50°   Ceiling: 10000
Heat Index: 50°   Visibility: 10mi
Dew Point: 37°   Wind: 22mph
Humidity: 61%   Direction: 360°N
Pressure: 30.15"   Gusts: 31mph
Location:  44.6612°N, 73.5979°W
Report Text: KPBG 230053Z AUTO 36019G27KT 10SM OVC100 10/03 A3015 RMK AO2 PK WND 36027/0045 SLP211 T01000028
Loading
Personal Weather Stations






























Interactive Weather Map
Tropical Storm Tracking
New forecast layout! Learn more

10-Day Weather Forecast

Advertisements
Track Severe Weather on mobile